sensor_id;sensor_type;location;lat;lon;timestamp;P1;durP1;ratioP1;P2;durP2;ratioP2
5821;SDS011;2937;48.562;8.022;2023-04-29T00:02:24;36.83;;;25.40;;
5821;SDS011;2937;48.562;8.022;2023-04-29T00:07:19;40.43;;;27.83;;
5821;SDS011;2937;48.562;8.022;2023-04-29T00:12:12;38.33;;;28.23;;
5821;SDS011;2937;48.562;8.022;2023-04-29T00:17:05;33.77;;;24.20;;
5821;SDS011;2937;48.562;8.022;2023-04-29T00:21:59;32.03;;;22.20;;
5821;SDS011;2937;48.562;8.022;2023-04-29T00:26:52;34.67;;;23.13;;
5821;SDS011;2937;48.562;8.022;2023-04-29T00:31:45;38.43;;;26.47;;
5821;SDS011;2937;48.562;8.022;2023-04-29T00:36:37;35.83;;;24.60;;
5821;SDS011;2937;48.562;8.022;2023-04-29T00:41:31;41.50;;;26.53;;
5821;SDS011;2937;48.562;8.022;2023-04-29T00:46:24;37.90;;;23.53;;
5821;SDS011;2937;48.562;8.022;2023-04-29T00:51:16;31.70;;;22.13;;
5821;SDS011;2937;48.562;8.022;2023-04-29T00:56:09;31.83;;;21.93;;
5821;SDS011;2937;48.562;8.022;2023-04-29T01:01:06;38.40;;;23.07;;
5821;SDS011;2937;48.562;8.022;2023-04-29T01:06:02;33.13;;;21.03;;
5821;SDS011;2937;48.562;8.022;2023-04-29T01:11:01;41.83;;;22.90;;
5821;SDS011;2937;48.562;8.022;2023-04-29T01:15:57;40.03;;;23.67;;
5821;SDS011;2937;48.562;8.022;2023-04-29T01:20:54;37.70;;;24.93;;
5821;SDS011;2937;48.562;8.022;2023-04-29T01:25:49;42.30;;;26.03;;
5821;SDS011;2937;48.562;8.022;2023-04-29T01:31:07;42.57;;;25.30;;
5821;SDS011;2937;48.562;8.022;2023-04-29T01:36:06;43.63;;;25.63;;
5821;SDS011;2937;48.562;8.022;2023-04-29T01:41:03;38.20;;;24.80;;
5821;SDS011;2937;48.562;8.022;2023-04-29T01:46:02;46.90;;;24.57;;
5821;SDS011;2937;48.562;8.022;2023-04-29T01:50:57;46.50;;;25.07;;
5821;SDS011;2937;48.562;8.022;2023-04-29T01:55:49;56.17;;;27.90;;
5821;SDS011;2937;48.562;8.022;2023-04-29T02:00:51;221.23;;;32.30;;
5821;SDS011;2937;48.562;8.022;2023-04-29T02:05:43;44.43;;;21.57;;
5821;SDS011;2937;48.562;8.022;2023-04-29T02:10:37;44.13;;;23.10;;
5821;SDS011;2937;48.562;8.022;2023-04-29T02:15:53;43.57;;;23.93;;
5821;SDS011;2937;48.562;8.022;2023-04-29T02:20:45;48.20;;;26.70;;
5821;SDS011;2937;48.562;8.022;2023-04-29T02:25:40;36.07;;;24.83;;
5821;SDS011;2937;48.562;8.022;2023-04-29T02:30:32;36.23;;;23.60;;
5821;SDS011;2937;48.562;8.022;2023-04-29T02:35:26;40.90;;;23.27;;
5821;SDS011;2937;48.562;8.022;2023-04-29T02:40:19;42.50;;;25.30;;
5821;SDS011;2937;48.562;8.022;2023-04-29T02:45:12;28.10;;;20.63;;
5821;SDS011;2937;48.562;8.022;2023-04-29T02:50:05;22.77;;;16.80;;
5821;SDS011;2937;48.562;8.022;2023-04-29T02:54:59;19.30;;;15.87;;
5821;SDS011;2937;48.562;8.022;2023-04-29T02:59:52;15.03;;;12.83;;
5821;SDS011;2937;48.562;8.022;2023-04-29T03:04:44;13.60;;;10.47;;
5821;SDS011;2937;48.562;8.022;2023-04-29T03:09:37;12.47;;;8.70;;
5821;SDS011;2937;48.562;8.022;2023-04-29T03:14:31;12.97;;;8.90;;
5821;SDS011;2937;48.562;8.022;2023-04-29T03:19:24;13.43;;;7.67;;
5821;SDS011;2937;48.562;8.022;2023-04-29T03:24:17;10.83;;;8.80;;
5821;SDS011;2937;48.562;8.022;2023-04-29T03:29:10;13.60;;;9.20;;
5821;SDS011;2937;48.562;8.022;2023-04-29T03:34:04;10.20;;;8.80;;
5821;SDS011;2937;48.562;8.022;2023-04-29T03:39:01;8.70;;;7.80;;
5821;SDS011;2937;48.562;8.022;2023-04-29T03:43:53;7.93;;;6.87;;
5821;SDS011;2937;48.562;8.022;2023-04-29T03:48:52;9.93;;;6.60;;
5821;SDS011;2937;48.562;8.022;2023-04-29T03:53:48;8.50;;;6.53;;
5821;SDS011;2937;48.562;8.022;2023-04-29T03:58:42;8.07;;;6.63;;
5821;SDS011;2937;48.562;8.022;2023-04-29T04:03:35;11.73;;;6.30;;
5821;SDS011;2937;48.562;8.022;2023-04-29T04:08:28;8.40;;;6.47;;
5821;SDS011;2937;48.562;8.022;2023-04-29T04:13:45;14.70;;;7.17;;
5821;SDS011;2937;48.562;8.022;2023-04-29T04:18:39;12.17;;;7.00;;
5821;SDS011;2937;48.562;8.022;2023-04-29T04:23:32;10.23;;;7.33;;
5821;SDS011;2937;48.562;8.022;2023-04-29T04:28:26;11.10;;;7.80;;
5821;SDS011;2937;48.562;8.022;2023-04-29T04:33:27;19.23;;;10.37;;
5821;SDS011;2937;48.562;8.022;2023-04-29T04:38:20;13.23;;;9.27;;
5821;SDS011;2937;48.562;8.022;2023-04-29T04:43:16;13.20;;;9.80;;
5821;SDS011;2937;48.562;8.022;2023-04-29T04:48:09;13.30;;;9.83;;
5821;SDS011;2937;48.562;8.022;2023-04-29T04:53:05;13.27;;;10.30;;
5821;SDS011;2937;48.562;8.022;2023-04-29T04:58:07;13.80;;;9.47;;
5821;SDS011;2937;48.562;8.022;2023-04-29T05:03:02;15.30;;;9.63;;
5821;SDS011;2937;48.562;8.022;2023-04-29T05:07:54;12.47;;;9.60;;
5821;SDS011;2937;48.562;8.022;2023-04-29T05:12:56;13.70;;;10.80;;
5821;SDS011;2937;48.562;8.022;2023-04-29T05:17:49;14.03;;;10.53;;
5821;SDS011;2937;48.562;8.022;2023-04-29T05:22:42;10.73;;;9.17;;
5821;SDS011;2937;48.562;8.022;2023-04-29T05:27:36;11.03;;;8.67;;
5821;SDS011;2937;48.562;8.022;2023-04-29T05:32:34;9.97;;;8.03;;
5821;SDS011;2937;48.562;8.022;2023-04-29T05:37:30;7.47;;;6.60;;
5821;SDS011;2937;48.562;8.022;2023-04-29T05:42:33;6.33;;;5.73;;
5821;SDS011;2937;48.562;8.022;2023-04-29T05:47:26;8.00;;;5.60;;
5821;SDS011;2937;48.562;8.022;2023-04-29T05:52:20;5.50;;;5.00;;
5821;SDS011;2937;48.562;8.022;2023-04-29T05:57:13;4.60;;;4.20;;
5821;SDS011;2937;48.562;8.022;2023-04-29T06:02:07;7.93;;;5.27;;
5821;SDS011;2937;48.562;8.022;2023-04-29T06:07:02;6.47;;;5.50;;
5821;SDS011;2937;48.562;8.022;2023-04-29T06:12:14;6.00;;;5.00;;
5821;SDS011;2937;48.562;8.022;2023-04-29T06:17:09;6.87;;;5.47;;
5821;SDS011;2937;48.562;8.022;2023-04-29T06:22:02;6.93;;;5.97;;
5821;SDS011;2937;48.562;8.022;2023-04-29T06:26:56;6.60;;;5.30;;
5821;SDS011;2937;48.562;8.022;2023-04-29T06:31:51;6.77;;;6.00;;
5821;SDS011;2937;48.562;8.022;2023-04-29T06:36:44;9.53;;;5.50;;
5821;SDS011;2937;48.562;8.022;2023-04-29T06:41:58;7.50;;;6.00;;
5821;SDS011;2937;48.562;8.022;2023-04-29T06:47:25;6.80;;;5.70;;
5821;SDS011;2937;48.562;8.022;2023-04-29T06:52:28;7.80;;;5.60;;
5821;SDS011;2937;48.562;8.022;2023-04-29T06:57:22;7.70;;;5.43;;
5821;SDS011;2937;48.562;8.022;2023-04-29T07:02:15;7.00;;;6.10;;
5821;SDS011;2937;48.562;8.022;2023-04-29T07:07:12;8.53;;;6.27;;
5821;SDS011;2937;48.562;8.022;2023-04-29T07:12:04;9.17;;;6.10;;
5821;SDS011;2937;48.562;8.022;2023-04-29T07:16:57;7.90;;;6.50;;
5821;SDS011;2937;48.562;8.022;2023-04-29T07:21:50;6.90;;;5.67;;
5821;SDS011;2937;48.562;8.022;2023-04-29T07:26:44;7.10;;;6.03;;
5821;SDS011;2937;48.562;8.022;2023-04-29T07:31:39;7.20;;;6.47;;
5821;SDS011;2937;48.562;8.022;2023-04-29T07:36:32;7.87;;;6.57;;
5821;SDS011;2937;48.562;8.022;2023-04-29T07:41:25;12.03;;;9.00;;
5821;SDS011;2937;48.562;8.022;2023-04-29T07:46:19;8.50;;;6.70;;
5821;SDS011;2937;48.562;8.022;2023-04-29T07:51:12;9.13;;;6.73;;
5821;SDS011;2937;48.562;8.022;2023-04-29T07:56:06;8.87;;;6.90;;
5821;SDS011;2937;48.562;8.022;2023-04-29T08:01:03;8.90;;;7.40;;
5821;SDS011;2937;48.562;8.022;2023-04-29T08:06:00;9.50;;;7.60;;
5821;SDS011;2937;48.562;8.022;2023-04-29T08:10:53;7.73;;;6.80;;
5821;SDS011;2937;48.562;8.022;2023-04-29T08:15:46;11.13;;;7.27;;
5821;SDS011;2937;48.562;8.022;2023-04-29T08:20:39;8.30;;;6.83;;
5821;SDS011;2937;48.562;8.022;2023-04-29T08:25:33;7.63;;;6.60;;
5821;SDS011;2937;48.562;8.022;2023-04-29T08:30:26;7.80;;;6.57;;
5821;SDS011;2937;48.562;8.022;2023-04-29T08:35:19;7.90;;;6.50;;
5821;SDS011;2937;48.562;8.022;2023-04-29T08:40:11;7.10;;;6.40;;
5821;SDS011;2937;48.562;8.022;2023-04-29T08:45:06;8.77;;;6.70;;
5821;SDS011;2937;48.562;8.022;2023-04-29T08:50:00;7.80;;;6.73;;
5821;SDS011;2937;48.562;8.022;2023-04-29T08:54:53;7.30;;;6.40;;
5821;SDS011;2937;48.562;8.022;2023-04-29T08:59:46;7.90;;;5.80;;
5821;SDS011;2937;48.562;8.022;2023-04-29T09:04:42;11.33;;;5.90;;
5821;SDS011;2937;48.562;8.022;2023-04-29T09:09:38;6.17;;;5.53;;
5821;SDS011;2937;48.562;8.022;2023-04-29T09:14:31;6.10;;;5.30;;
5821;SDS011;2937;48.562;8.022;2023-04-29T09:19:28;5.07;;;4.50;;
5821;SDS011;2937;48.562;8.022;2023-04-29T09:24:25;5.30;;;4.60;;
5821;SDS011;2937;48.562;8.022;2023-04-29T09:29:17;5.77;;;4.40;;
5821;SDS011;2937;48.562;8.022;2023-04-29T09:34:11;7.97;;;4.93;;
5821;SDS011;2937;48.562;8.022;2023-04-29T09:39:03;5.90;;;5.00;;
5821;SDS011;2937;48.562;8.022;2023-04-29T09:44:04;6.47;;;5.47;;
5821;SDS011;2937;48.562;8.022;2023-04-29T09:48:57;6.10;;;4.60;;
5821;SDS011;2937;48.562;8.022;2023-04-29T09:53:50;6.33;;;5.27;;
5821;SDS011;2937;48.562;8.022;2023-04-29T09:58:42;7.17;;;5.60;;
5821;SDS011;2937;48.562;8.022;2023-04-29T10:03:37;6.83;;;5.20;;
5821;SDS011;2937;48.562;8.022;2023-04-29T10:08:30;7.37;;;5.70;;
5821;SDS011;2937;48.562;8.022;2023-04-29T10:13:23;7.47;;;5.97;;
5821;SDS011;2937;48.562;8.022;2023-04-29T10:18:17;8.70;;;6.73;;
5821;SDS011;2937;48.562;8.022;2023-04-29T10:23:13;8.83;;;7.53;;
5821;SDS011;2937;48.562;8.022;2023-04-29T10:28:06;8.83;;;6.53;;
5821;SDS011;2937;48.562;8.022;2023-04-29T10:33:00;9.57;;;6.43;;
5821;SDS011;2937;48.562;8.022;2023-04-29T10:37:55;7.67;;;6.13;;
5821;SDS011;2937;48.562;8.022;2023-04-29T10:42:53;7.00;;;5.50;;
5821;SDS011;2937;48.562;8.022;2023-04-29T10:52:57;6.37;;;5.67;;
5821;SDS011;2937;48.562;8.022;2023-04-29T10:57:54;9.37;;;5.87;;
5821;SDS011;2937;48.562;8.022;2023-04-29T11:02:47;6.77;;;5.40;;
5821;SDS011;2937;48.562;8.022;2023-04-29T11:07:40;6.37;;;5.20;;
5821;SDS011;2937;48.562;8.022;2023-04-29T11:12:34;5.40;;;4.90;;
5821;SDS011;2937;48.562;8.022;2023-04-29T11:17:33;6.17;;;5.10;;
5821;SDS011;2937;48.562;8.022;2023-04-29T11:22:26;6.83;;;5.53;;
5821;SDS011;2937;48.562;8.022;2023-04-29T11:27:21;7.37;;;5.17;;
5821;SDS011;2937;48.562;8.022;2023-04-29T11:32:18;5.70;;;5.00;;
5821;SDS011;2937;48.562;8.022;2023-04-29T11:37:17;5.27;;;4.60;;
5821;SDS011;2937;48.562;8.022;2023-04-29T11:42:10;4.57;;;4.17;;
5821;SDS011;2937;48.562;8.022;2023-04-29T11:47:03;4.97;;;4.47;;
5821;SDS011;2937;48.562;8.022;2023-04-29T11:51:55;4.87;;;4.37;;
5821;SDS011;2937;48.562;8.022;2023-04-29T11:56:49;7.20;;;4.67;;
5821;SDS011;2937;48.562;8.022;2023-04-29T12:01:44;5.03;;;4.50;;
5821;SDS011;2937;48.562;8.022;2023-04-29T12:06:37;5.03;;;4.50;;
5821;SDS011;2937;48.562;8.022;2023-04-29T12:11:30;5.40;;;4.90;;
5821;SDS011;2937;48.562;8.022;2023-04-29T12:16:24;5.10;;;4.60;;
5821;SDS011;2937;48.562;8.022;2023-04-29T12:21:20;6.87;;;4.43;;
5821;SDS011;2937;48.562;8.022;2023-04-29T12:26:13;5.87;;;4.77;;
5821;SDS011;2937;48.562;8.022;2023-04-29T12:31:07;5.93;;;5.10;;
5821;SDS011;2937;48.562;8.022;2023-04-29T12:36:02;5.63;;;5.10;;
5821;SDS011;2937;48.562;8.022;2023-04-29T12:40:55;6.40;;;5.00;;
5821;SDS011;2937;48.562;8.022;2023-04-29T12:45:48;6.47;;;4.60;;
5821;SDS011;2937;48.562;8.022;2023-04-29T12:50:41;6.07;;;5.37;;
5821;SDS011;2937;48.562;8.022;2023-04-29T12:55:35;6.90;;;6.20;;
5821;SDS011;2937;48.562;8.022;2023-04-29T13:00:28;7.57;;;6.40;;
5821;SDS011;2937;48.562;8.022;2023-04-29T13:05:21;8.40;;;7.23;;
5821;SDS011;2937;48.562;8.022;2023-04-29T13:10:14;8.67;;;6.73;;
5821;SDS011;2937;48.562;8.022;2023-04-29T13:15:08;8.10;;;6.63;;
5821;SDS011;2937;48.562;8.022;2023-04-29T13:20:01;10.37;;;6.57;;
5821;SDS011;2937;48.562;8.022;2023-04-29T13:24:55;8.40;;;6.90;;
5821;SDS011;2937;48.562;8.022;2023-04-29T13:29:47;9.23;;;7.87;;
5821;SDS011;2937;48.562;8.022;2023-04-29T13:34:41;8.67;;;7.47;;
5821;SDS011;2937;48.562;8.022;2023-04-29T13:39:35;9.27;;;7.70;;
5821;SDS011;2937;48.562;8.022;2023-04-29T13:44:28;8.90;;;6.80;;
5821;SDS011;2937;48.562;8.022;2023-04-29T13:49:40;9.83;;;7.47;;
5821;SDS011;2937;48.562;8.022;2023-04-29T13:54:55;10.70;;;7.30;;
5821;SDS011;2937;48.562;8.022;2023-04-29T14:00:08;8.73;;;6.90;;
5821;SDS011;2937;48.562;8.022;2023-04-29T14:05:21;8.50;;;7.00;;
5821;SDS011;2937;48.562;8.022;2023-04-29T14:10:15;9.87;;;6.53;;
5821;SDS011;2937;48.562;8.022;2023-04-29T14:15:08;9.17;;;7.40;;
5821;SDS011;2937;48.562;8.022;2023-04-29T14:20:01;9.07;;;7.03;;
5821;SDS011;2937;48.562;8.022;2023-04-29T14:24:54;9.70;;;7.20;;
5821;SDS011;2937;48.562;8.022;2023-04-29T14:29:48;9.07;;;7.10;;
5821;SDS011;2937;48.562;8.022;2023-04-29T14:34:41;7.20;;;6.37;;
5821;SDS011;2937;48.562;8.022;2023-04-29T14:39:33;10.97;;;8.37;;
5821;SDS011;2937;48.562;8.022;2023-04-29T14:44:26;12.57;;;8.37;;
5821;SDS011;2937;48.562;8.022;2023-04-29T14:49:20;11.43;;;8.37;;
5821;SDS011;2937;48.562;8.022;2023-04-29T14:54:12;12.83;;;8.67;;
5821;SDS011;2937;48.562;8.022;2023-04-29T14:59:05;11.00;;;8.60;;
5821;SDS011;2937;48.562;8.022;2023-04-29T15:03:59;11.23;;;8.40;;
5821;SDS011;2937;48.562;8.022;2023-04-29T15:08:53;9.80;;;8.27;;
5821;SDS011;2937;48.562;8.022;2023-04-29T15:13:46;10.27;;;7.93;;
5821;SDS011;2937;48.562;8.022;2023-04-29T15:18:39;10.67;;;8.40;;
5821;SDS011;2937;48.562;8.022;2023-04-29T15:23:36;10.17;;;8.00;;
5821;SDS011;2937;48.562;8.022;2023-04-29T15:28:31;9.60;;;8.17;;
5821;SDS011;2937;48.562;8.022;2023-04-29T15:33:23;10.67;;;7.93;;
5821;SDS011;2937;48.562;8.022;2023-04-29T15:38:16;10.37;;;8.33;;
5821;SDS011;2937;48.562;8.022;2023-04-29T15:43:09;10.73;;;8.43;;
5821;SDS011;2937;48.562;8.022;2023-04-29T15:48:02;14.73;;;10.77;;
5821;SDS011;2937;48.562;8.022;2023-04-29T15:52:55;11.80;;;8.47;;
5821;SDS011;2937;48.562;8.022;2023-04-29T15:57:49;13.87;;;8.40;;
5821;SDS011;2937;48.562;8.022;2023-04-29T16:02:41;12.60;;;9.20;;
5821;SDS011;2937;48.562;8.022;2023-04-29T16:07:36;11.57;;;8.70;;
5821;SDS011;2937;48.562;8.022;2023-04-29T16:12:29;13.40;;;8.83;;
5821;SDS011;2937;48.562;8.022;2023-04-29T16:17:21;10.43;;;8.03;;
5821;SDS011;2937;48.562;8.022;2023-04-29T16:22:14;11.70;;;8.73;;
5821;SDS011;2937;48.562;8.022;2023-04-29T16:27:08;11.90;;;9.10;;
5821;SDS011;2937;48.562;8.022;2023-04-29T16:32:02;12.03;;;9.13;;
5821;SDS011;2937;48.562;8.022;2023-04-29T16:36:55;12.30;;;9.10;;
5821;SDS011;2937;48.562;8.022;2023-04-29T16:41:47;13.80;;;9.40;;
5821;SDS011;2937;48.562;8.022;2023-04-29T16:46:42;12.10;;;8.57;;
5821;SDS011;2937;48.562;8.022;2023-04-29T16:51:45;10.27;;;8.03;;
5821;SDS011;2937;48.562;8.022;2023-04-29T16:56:37;13.30;;;9.07;;
5821;SDS011;2937;48.562;8.022;2023-04-29T17:01:30;12.80;;;9.00;;
5821;SDS011;2937;48.562;8.022;2023-04-29T17:06:24;12.03;;;8.10;;
5821;SDS011;2937;48.562;8.022;2023-04-29T17:11:17;11.53;;;8.10;;
5821;SDS011;2937;48.562;8.022;2023-04-29T17:16:10;11.63;;;8.30;;
5821;SDS011;2937;48.562;8.022;2023-04-29T17:21:04;10.43;;;7.90;;
5821;SDS011;2937;48.562;8.022;2023-04-29T17:25:58;12.70;;;9.20;;
5821;SDS011;2937;48.562;8.022;2023-04-29T17:30:52;12.63;;;9.00;;
5821;SDS011;2937;48.562;8.022;2023-04-29T17:35:46;12.83;;;8.50;;
5821;SDS011;2937;48.562;8.022;2023-04-29T17:40:38;10.93;;;7.73;;
5821;SDS011;2937;48.562;8.022;2023-04-29T17:45:32;11.73;;;7.93;;
5821;SDS011;2937;48.562;8.022;2023-04-29T17:50:25;20.13;;;11.83;;
5821;SDS011;2937;48.562;8.022;2023-04-29T17:55:18;11.37;;;6.67;;
5821;SDS011;2937;48.562;8.022;2023-04-29T18:00:11;9.17;;;7.30;;
5821;SDS011;2937;48.562;8.022;2023-04-29T18:05:05;9.90;;;6.90;;
5821;SDS011;2937;48.562;8.022;2023-04-29T18:09:58;9.13;;;6.43;;
5821;SDS011;2937;48.562;8.022;2023-04-29T18:14:51;9.00;;;6.77;;
5821;SDS011;2937;48.562;8.022;2023-04-29T18:19:45;10.73;;;7.50;;
5821;SDS011;2937;48.562;8.022;2023-04-29T18:24:38;10.17;;;7.43;;
5821;SDS011;2937;48.562;8.022;2023-04-29T18:29:31;8.87;;;7.10;;
5821;SDS011;2937;48.562;8.022;2023-04-29T18:34:24;9.43;;;7.23;;
5821;SDS011;2937;48.562;8.022;2023-04-29T18:39:16;9.37;;;7.30;;
5821;SDS011;2937;48.562;8.022;2023-04-29T18:44:10;11.57;;;7.60;;
5821;SDS011;2937;48.562;8.022;2023-04-29T18:49:03;8.80;;;7.27;;
5821;SDS011;2937;48.562;8.022;2023-04-29T18:53:55;9.00;;;6.90;;
5821;SDS011;2937;48.562;8.022;2023-04-29T18:58:48;9.80;;;7.60;;
5821;SDS011;2937;48.562;8.022;2023-04-29T19:03:42;11.00;;;7.47;;
5821;SDS011;2937;48.562;8.022;2023-04-29T19:08:34;9.20;;;7.70;;
5821;SDS011;2937;48.562;8.022;2023-04-29T19:13:27;9.87;;;7.60;;
5821;SDS011;2937;48.562;8.022;2023-04-29T19:18:19;11.00;;;7.77;;
5821;SDS011;2937;48.562;8.022;2023-04-29T19:23:14;10.30;;;8.37;;
5821;SDS011;2937;48.562;8.022;2023-04-29T19:28:07;11.87;;;8.80;;
5821;SDS011;2937;48.562;8.022;2023-04-29T19:33:00;11.17;;;8.60;;
5821;SDS011;2937;48.562;8.022;2023-04-29T19:37:53;9.67;;;7.77;;
5821;SDS011;2937;48.562;8.022;2023-04-29T19:42:47;11.33;;;8.67;;
5821;SDS011;2937;48.562;8.022;2023-04-29T19:47:39;10.80;;;8.07;;
5821;SDS011;2937;48.562;8.022;2023-04-29T19:52:32;9.60;;;7.27;;
5821;SDS011;2937;48.562;8.022;2023-04-29T19:57:25;10.73;;;8.00;;
5821;SDS011;2937;48.562;8.022;2023-04-29T20:02:20;10.37;;;8.07;;
5821;SDS011;2937;48.562;8.022;2023-04-29T20:07:12;11.30;;;7.93;;
5821;SDS011;2937;48.562;8.022;2023-04-29T20:12:05;12.90;;;8.73;;
5821;SDS011;2937;48.562;8.022;2023-04-29T20:16:57;10.50;;;7.90;;
5821;SDS011;2937;48.562;8.022;2023-04-29T20:21:52;13.00;;;8.30;;
5821;SDS011;2937;48.562;8.022;2023-04-29T20:26:45;9.33;;;7.40;;
5821;SDS011;2937;48.562;8.022;2023-04-29T20:31:38;8.40;;;6.03;;
5821;SDS011;2937;48.562;8.022;2023-04-29T20:36:31;8.63;;;7.07;;
5821;SDS011;2937;48.562;8.022;2023-04-29T20:41:26;8.70;;;6.87;;
5821;SDS011;2937;48.562;8.022;2023-04-29T20:46:19;10.70;;;7.47;;
5821;SDS011;2937;48.562;8.022;2023-04-29T20:51:15;9.90;;;7.60;;
5821;SDS011;2937;48.562;8.022;2023-04-29T20:56:08;12.00;;;7.57;;
5821;SDS011;2937;48.562;8.022;2023-04-29T21:01:02;10.17;;;7.90;;
5821;SDS011;2937;48.562;8.022;2023-04-29T21:05:55;12.93;;;8.30;;
5821;SDS011;2937;48.562;8.022;2023-04-29T21:10:48;10.97;;;7.90;;
5821;SDS011;2937;48.562;8.022;2023-04-29T21:15:42;14.83;;;9.27;;
5821;SDS011;2937;48.562;8.022;2023-04-29T21:20:36;14.20;;;9.20;;
5821;SDS011;2937;48.562;8.022;2023-04-29T21:25:29;11.90;;;9.83;;
5821;SDS011;2937;48.562;8.022;2023-04-29T21:30:22;11.40;;;7.63;;
5821;SDS011;2937;48.562;8.022;2023-04-29T21:35:14;11.87;;;8.87;;
5821;SDS011;2937;48.562;8.022;2023-04-29T21:40:09;13.40;;;9.90;;
5821;SDS011;2937;48.562;8.022;2023-04-29T21:45:02;12.33;;;9.00;;
5821;SDS011;2937;48.562;8.022;2023-04-29T21:49:55;13.20;;;9.07;;
5821;SDS011;2937;48.562;8.022;2023-04-29T21:54:48;16.03;;;9.97;;
5821;SDS011;2937;48.562;8.022;2023-04-29T21:59:42;14.07;;;9.70;;
5821;SDS011;2937;48.562;8.022;2023-04-29T22:04:34;14.50;;;11.00;;
5821;SDS011;2937;48.562;8.022;2023-04-29T22:09:27;14.27;;;11.40;;
5821;SDS011;2937;48.562;8.022;2023-04-29T22:14:20;15.80;;;11.40;;
5821;SDS011;2937;48.562;8.022;2023-04-29T22:19:13;17.90;;;12.67;;
5821;SDS011;2937;48.562;8.022;2023-04-29T22:24:06;17.17;;;12.33;;
5821;SDS011;2937;48.562;8.022;2023-04-29T22:28:59;20.50;;;13.70;;
5821;SDS011;2937;48.562;8.022;2023-04-29T22:33:52;20.60;;;13.57;;
5821;SDS011;2937;48.562;8.022;2023-04-29T22:38:46;19.00;;;13.50;;
5821;SDS011;2937;48.562;8.022;2023-04-29T22:43:39;19.90;;;13.80;;
5821;SDS011;2937;48.562;8.022;2023-04-29T22:48:31;22.07;;;14.77;;
5821;SDS011;2937;48.562;8.022;2023-04-29T22:53:24;21.53;;;14.50;;
5821;SDS011;2937;48.562;8.022;2023-04-29T22:58:18;20.57;;;14.10;;
5821;SDS011;2937;48.562;8.022;2023-04-29T23:03:10;23.13;;;15.50;;
5821;SDS011;2937;48.562;8.022;2023-04-29T23:08:03;22.40;;;15.20;;
5821;SDS011;2937;48.562;8.022;2023-04-29T23:12:56;21.50;;;15.67;;
5821;SDS011;2937;48.562;8.022;2023-04-29T23:17:50;24.33;;;16.30;;
5821;SDS011;2937;48.562;8.022;2023-04-29T23:22:43;23.80;;;16.27;;
5821;SDS011;2937;48.562;8.022;2023-04-29T23:27:36;25.30;;;14.47;;
5821;SDS011;2937;48.562;8.022;2023-04-29T23:32:29;22.73;;;15.77;;
5821;SDS011;2937;48.562;8.022;2023-04-29T23:37:23;19.43;;;13.67;;
5821;SDS011;2937;48.562;8.022;2023-04-29T23:42:15;21.00;;;14.90;;
5821;SDS011;2937;48.562;8.022;2023-04-29T23:47:08;22.77;;;15.03;;
5821;SDS011;2937;48.562;8.022;2023-04-29T23:52:01;20.90;;;14.93;;
5821;SDS011;2937;48.562;8.022;2023-04-29T23:56:57;20.17;;;14.20;;
